createdAt,value
2023-05-20T01:05:20.153Z,4
2023-05-20T01:08:09.541Z,0
2023-05-20T06:29:43.064Z,6.7
2023-05-20T06:35:25.432Z,7.7
2023-05-20T06:42:13.385Z,6.2
2023-05-20T06:45:04.387Z,6
2023-05-20T06:47:41.343Z,7.5
2023-05-20T07:00:20.236Z,8.5
2023-05-20T07:13:22.912Z,6
2023-05-20T07:21:05.593Z,7.4
2023-05-20T07:23:32.503Z,8
2023-05-20T07:28:46.723Z,6.9
2023-05-20T07:31:34.172Z,6.3
2023-05-20T07:34:07.196Z,6.2
2023-05-20T07:38:30.254Z,6
2023-05-20T07:41:23.865Z,7.2
2023-05-20T07:44:03.395Z,8.9
2023-05-20T07:51:39.004Z,6.3
2023-05-20T07:56:55.881Z,7.1
2023-05-20T07:59:12.740Z,7.3
2023-05-20T08:04:07.135Z,9.6
2023-05-20T08:09:07.860Z,7.3
2023-05-20T08:11:16.599Z,8
2023-05-20T08:16:58.731Z,7.8
2023-05-20T08:21:43.260Z,7.9
2023-05-20T08:23:43.701Z,8.7
2023-05-20T08:29:09.701Z,9.7
2023-05-20T08:36:34.425Z,7.9
2023-05-20T08:41:44.194Z,7.4
2023-05-20T08:43:57.439Z,5
2023-05-20T08:47:00.831Z,6.7
2023-05-20T08:52:22.551Z,7.1
2023-05-20T08:54:42.013Z,8.8
2023-05-20T08:56:47.037Z,9.4
2023-05-20T09:04:08.639Z,11.7
2023-05-20T09:09:45.707Z,12.1
2023-05-20T09:12:12.677Z,8.1
2023-05-20T09:14:25.322Z,8.8
2023-05-20T09:17:27.121Z,10.8
2023-05-20T09:22:48.142Z,8.2
2023-05-20T09:27:11.412Z,14
2023-05-20T09:32:45.127Z,10
2023-05-20T09:43:06.818Z,9.9
2023-05-20T09:45:38.417Z,13.1
2023-05-20T09:47:55.407Z,12.3
2023-05-20T09:49:57.885Z,11.7
2023-05-20T09:52:50.105Z,11
2023-05-20T10:02:59.011Z,11.4
2023-05-20T10:05:42.658Z,10
2023-05-20T10:08:12.448Z,10.5
2023-05-20T10:12:28.351Z,10
2023-05-20T10:15:18.615Z,9.9
2023-05-20T10:17:54.725Z,13
2023-05-20T10:20:16.159Z,13.7
2023-05-20T10:25:19.920Z,12.3
2023-05-20T10:28:02.272Z,9.9
2023-05-20T10:30:29.828Z,11.7
2023-05-20T10:38:35.099Z,9.9
2023-05-20T10:43:29.003Z,9.1
2023-05-20T10:51:09.357Z,7.8
2023-05-20T10:53:35.465Z,9.1
2023-05-20T10:58:48.171Z,9
2023-05-20T11:01:34.988Z,7.8
2023-05-20T11:06:25.271Z,10.4
2023-05-20T11:11:21.659Z,12.6
2023-05-20T11:14:00.447Z,11.4
2023-05-20T11:16:24.615Z,9.9
2023-05-20T11:18:34.463Z,15.3
2023-05-20T11:24:18.750Z,8.4
2023-05-20T11:29:05.173Z,12.7
2023-05-20T11:33:58.163Z,9.7
2023-05-20T11:36:35.033Z,12.9
2023-05-20T11:41:05.399Z,10
2023-05-20T11:44:02.972Z,10.2
2023-05-20T11:46:46.017Z,11.4
2023-05-20T11:59:56.980Z,14.6
2023-05-20T12:02:17.929Z,13.6
2023-05-20T12:04:23.862Z,13.3
2023-05-20T12:12:27.908Z,11.3
2023-05-20T12:17:42.363Z,9.5
2023-05-20T12:20:29.858Z,11.9
2023-05-20T12:25:21.812Z,15.9
2023-05-20T12:32:59.740Z,9.5
2023-05-20T12:35:24.727Z,11.2
2023-05-20T12:43:21.674Z,10.4
2023-05-20T12:50:12.315Z,18.9
2023-05-20T12:53:04.471Z,17.7
2023-05-20T13:03:12.588Z,14.1
2023-05-20T13:05:56.620Z,19.6
2023-05-20T13:12:42.111Z,12.7
2023-05-20T13:20:29.908Z,12.7
2023-05-20T13:25:33.485Z,15.5
2023-05-20T13:32:56.668Z,12
2023-05-20T13:41:22.128Z,12.5
2023-05-20T13:48:41.954Z,10
2023-05-20T13:51:22.242Z,8.9
2023-05-20T13:53:48.195Z,12.6
2023-05-20T14:04:19.590Z,8.8
2023-05-20T14:06:37.415Z,11.2
2023-05-20T14:08:40.904Z,15.1
2023-05-20T14:16:36.732Z,11
2023-05-20T14:18:46.698Z,12.7
2023-05-20T14:21:45.707Z,9.2
2023-05-20T14:29:16.984Z,11.4
2023-05-20T14:34:09.608Z,9.6
2023-05-20T14:36:46.362Z,6.9
2023-05-20T14:39:08.708Z,9.8
2023-05-20T14:41:16.657Z,9.5
2023-05-20T14:44:14.222Z,10
2023-05-20T14:46:57.204Z,9.6
2023-05-20T14:51:40.176Z,7.5
2023-05-20T14:54:43.895Z,7.3
2023-05-20T14:57:33.131Z,9
2023-05-20T15:02:28.848Z,7.8
2023-05-20T15:10:11.690Z,6.6
2023-05-20T15:12:38.383Z,7.3
2023-05-20T15:17:53.166Z,6.6
2023-05-20T15:20:40.779Z,7.4
2023-05-20T15:25:32.380Z,5.6
2023-05-20T15:30:30.393Z,6.8
2023-05-20T15:35:35.013Z,5.6
2023-05-20T15:37:45.463Z,7
2023-05-20T15:43:31.454Z,4
2023-05-20T15:46:02.736Z,0
2023-05-20T15:48:19.842Z,5.1
2023-05-20T15:50:22.102Z,5.6
2023-05-20T15:55:51.830Z,5.3
2023-05-20T16:08:35.743Z,0
2023-05-20T16:18:17.496Z,6.7
2023-05-20T16:22:45.901Z,4.6
2023-05-20T16:28:24.402Z,9.5
2023-05-20T16:30:52.202Z,8.5
2023-05-20T16:33:05.427Z,7.5
2023-05-20T16:36:08.082Z,8.7
2023-05-20T16:41:30.642Z,7.5
2023-05-20T16:43:49.979Z,6.8
2023-05-20T16:45:55.546Z,5.8
2023-05-20T16:48:50.233Z,0
2023-05-20T16:53:56.477Z,4.1
2023-05-20T16:59:08.840Z,5
2023-05-20T17:01:55.412Z,0
2023-05-20T17:08:48.681Z,0
